createdAt,value
2023-03-01T00:03:17.323Z,98998.05
2023-03-01T00:07:06.481Z,99002.11
2023-03-01T00:10:56.400Z,99008.01
2023-03-01T00:14:45.052Z,99005.63
2023-03-01T00:18:34.297Z,99004.02
2023-03-01T00:22:23.882Z,98996.65
2023-03-01T00:26:13.843Z,98998.28
2023-03-01T00:44:43.057Z,98973.81
2023-03-01T00:47:54.851Z,98973.97
2023-03-01T00:50:48.406Z,98971.73
2023-03-01T00:54:09.644Z,98968.02
2023-03-01T00:57:21.134Z,98969.23
2023-03-01T01:00:42.999Z,98970.13
2023-03-01T01:03:33.589Z,98970.77
2023-03-01T01:06:26.960Z,98975.81
2023-03-01T01:09:37.102Z,98976.11
2023-03-01T01:13:05.991Z,98975.42
2023-03-01T01:16:10.536Z,98971.20
2023-03-01T01:19:41.974Z,98972.23
2023-03-01T01:23:16.754Z,98969.83
2023-03-01T01:26:51.205Z,98966.86
2023-03-01T01:30:19.074Z,98962.84
2023-03-01T01:33:57.140Z,98968.55
2023-03-01T01:37:13.906Z,98967.78
2023-03-01T01:39:45.333Z,98969.16
2023-03-01T01:43:08.835Z,98966.05
2023-03-01T01:46:15.351Z,98964.27
2023-03-01T01:50:04.331Z,98962.60
2023-03-01T01:52:43.619Z,98962.05
2023-03-01T01:56:00.427Z,98956.80
2023-03-01T01:59:05.874Z,98953.59
2023-03-01T02:01:58.978Z,98947.54
2023-03-01T02:05:04.773Z,98942.77
2023-03-01T02:08:39.062Z,98937.36
2023-03-01T02:12:26.509Z,98925.13
2023-03-01T02:15:28.259Z,98923.41
2023-03-01T02:18:51.783Z,98919.31
2023-03-01T02:22:31.310Z,98909.23
2023-03-01T02:26:14.448Z,98906.51
2023-03-01T02:29:36.441Z,98914.03
2023-03-01T02:32:48.203Z,98907.32
2023-03-01T02:35:57.710Z,98903.62
2023-03-01T02:38:46.335Z,98904.20
2023-03-01T02:41:40.480Z,98906.39
2023-03-01T02:48:00.597Z,98895.71
2023-03-01T02:51:30.424Z,98906.92
2023-03-01T02:54:26.839Z,98907.00
2023-03-01T02:57:00.194Z,98902.32
2023-03-01T02:59:40.708Z,98899.73
2023-03-01T03:03:21.689Z,98900.83
2023-03-01T03:06:29.009Z,98899.81
2023-03-01T03:09:11.890Z,98891.44
2023-03-01T03:12:06.101Z,98890.84
2023-03-01T03:15:01.980Z,98894.56
2023-03-01T03:18:32.701Z,98898.40
2023-03-01T03:21:44.602Z,98895.42
2023-03-01T03:25:02.723Z,98890.71
2023-03-01T03:27:43.802Z,98892.77
2023-03-01T03:30:22.613Z,98897.40
2023-03-01T03:33:21.265Z,98898.42
2023-03-01T03:36:26.803Z,98897.77
2023-03-01T03:39:20.882Z,98895.89
2023-03-01T03:42:13.910Z,98898.21
2023-03-01T03:45:12.505Z,98901.51
2023-03-01T03:48:00.994Z,98906.41
2023-03-01T03:51:29.509Z,98905.98
2023-03-01T03:54:52.911Z,98900.38
2023-03-01T03:57:55.145Z,98901.46
2023-03-01T04:01:27.334Z,98900.77
2023-03-01T04:04:05.294Z,98903.14
2023-03-01T04:06:56.892Z,98907.35
2023-03-01T04:09:52.295Z,98909.64
2023-03-01T04:13:26.502Z,98910.50
2023-03-01T04:16:48.842Z,98908.70
2023-03-01T04:19:51.237Z,98908.88
2023-03-01T04:23:21.750Z,98903.84
2023-03-01T04:26:50.526Z,98900.70
2023-03-01T04:30:30.343Z,98894.89
2023-03-01T04:34:19.036Z,98894.65
2023-03-01T04:37:42.835Z,98899.56
2023-03-01T04:41:13.034Z,98898.98
2023-03-01T04:44:36.383Z,98898.95
2023-03-01T04:47:41.517Z,98899.89
2023-03-01T04:51:06.617Z,98906.52
2023-03-01T04:54:18.628Z,98914.76
2023-03-01T04:57:40.193Z,98920.04
2023-03-01T05:00:54.615Z,98926.83
2023-03-01T05:04:14.191Z,98926.91
2023-03-01T05:07:25.070Z,98918.86
2023-03-01T05:10:36.299Z,98911.39
2023-03-01T05:13:24.791Z,98913.13
2023-03-01T05:16:30.624Z,98910.20
2023-03-01T05:19:23.889Z,98902.29
2023-03-01T05:22:33.024Z,98896.65
2023-03-01T05:25:54.883Z,98895.91
2023-03-01T05:29:06.827Z,98903.96
2023-03-01T05:32:17.265Z,98913.30
2023-03-01T05:35:12.068Z,98907.40
2023-03-01T05:38:00.681Z,98900.83
2023-03-01T05:40:35.256Z,98900.21
2023-03-01T05:43:34.956Z,98900.20
2023-03-01T05:46:08.572Z,98889.45
2023-03-01T05:48:41.623Z,98886.89
2023-03-01T05:51:18.687Z,98892.98
2023-03-01T05:54:29.911Z,98893.80
2023-03-01T05:57:03.444Z,98885.30
2023-03-01T05:59:45.776Z,98890.83
2023-03-01T06:02:13.932Z,98900.01
2023-03-01T06:05:14.074Z,98900.14
2023-03-01T06:08:03.276Z,98901.03
2023-03-01T06:11:15.457Z,98895.86
2023-03-01T06:14:15.601Z,98896.70
2023-03-01T06:16:47.082Z,98891.19
2023-03-01T06:19:24.153Z,98892.02
2023-03-01T06:21:58.913Z,98893.80
2023-03-01T06:25:09.411Z,98892.41
2023-03-01T06:27:41.069Z,98889.32
2023-03-01T06:30:29.552Z,98895.88
2023-03-01T06:33:03.510Z,98888.65
2023-03-01T06:36:35.908Z,98890.02
2023-03-01T06:39:15.281Z,98888.85
2023-03-01T06:42:24.290Z,98885.71
2023-03-01T06:44:52.417Z,98877.24
2023-03-01T06:47:23.950Z,98878.79
2023-03-01T06:50:21.593Z,98884.29
2023-03-01T06:53:12.922Z,98887.54
2023-03-01T06:56:01.389Z,98893.51
2023-03-01T06:58:43.191Z,98891.91
2023-03-01T07:01:20.658Z,98889.93
2023-03-01T07:04:20.741Z,98894.52
2023-03-01T07:07:19.119Z,98895.07
2023-03-01T07:10:07.418Z,98895.71
2023-03-01T07:12:47.561Z,98895.32
2023-03-01T07:15:30.436Z,98897.12
2023-03-01T07:18:21.668Z,98903.88
2023-03-01T07:21:32.345Z,98900.24
2023-03-01T07:24:42.858Z,98897.94
2023-03-01T07:27:32.207Z,98899.15
2023-03-01T07:30:33.819Z,98899.33
2023-03-01T07:33:48.225Z,98898.85
2023-03-01T07:36:53.396Z,98891.64
2023-03-01T07:39:42.083Z,98883.52
2023-03-01T07:42:33.569Z,98887.87
2023-03-01T07:45:54.895Z,98886.00
2023-03-01T07:48:25.966Z,98882.98
2023-03-01T07:50:57.343Z,98880.54
2023-03-01T07:53:51.645Z,98874.39
2023-03-01T07:56:44.885Z,98872.91
2023-03-01T07:59:30.981Z,98868.98
2023-03-01T08:02:59.619Z,98867.90
2023-03-01T08:05:50.704Z,98863.80
2023-03-01T08:08:52.516Z,98858.85
2023-03-01T08:12:34.370Z,98852.77
2023-03-01T08:16:23.563Z,98850.17
2023-03-01T08:19:14.604Z,98848.57
2023-03-01T08:22:26.072Z,98839.52
2023-03-01T08:25:24.873Z,98836.63
2023-03-01T08:29:13.984Z,98829.52
2023-03-01T08:32:25.600Z,98821.61
2023-03-01T08:35:53.509Z,98813.84
2023-03-01T08:38:48.901Z,98812.54
2023-03-01T08:42:00.165Z,98812.33
2023-03-01T08:45:37.345Z,98809.52
2023-03-01T08:48:48.717Z,98816.38
2023-03-01T08:52:17.569Z,98814.65
2023-03-01T08:55:09.016Z,98818.59
2023-03-01T08:58:20.118Z,98821.44
2023-03-01T09:01:30.000Z,98830.00
2023-03-01T09:04:01.991Z,98828.55
2023-03-01T09:07:05.732Z,98831.52
2023-03-01T09:10:34.830Z,98829.66
2023-03-01T09:13:33.560Z,98829.91
2023-03-01T09:17:03.766Z,98825.89
2023-03-01T09:20:09.087Z,98827.34
2023-03-01T09:23:40.745Z,98821.30
2023-03-01T09:27:12.247Z,98825.27
2023-03-01T09:30:46.590Z,98818.70
2023-03-01T09:34:17.201Z,98814.75
2023-03-01T09:37:23.287Z,98812.89
2023-03-01T09:40:52.279Z,98809.05
2023-03-01T09:44:32.653Z,98810.38
2023-03-01T09:48:04.889Z,98805.92
2023-03-01T09:51:06.038Z,98811.95
2023-03-01T09:54:12.256Z,98810.98
2023-03-01T09:57:21.850Z,98811.58
2023-03-01T10:01:03.985Z,98808.70
2023-03-01T10:04:45.150Z,98807.88
2023-03-01T10:08:02.222Z,98805.61
2023-03-01T10:11:40.409Z,98800.56
2023-03-01T10:14:53.265Z,98805.86
2023-03-01T10:24:10.230Z,98802.98
2023-03-01T10:27:33.774Z,98799.46
2023-03-01T10:30:53.140Z,98801.33
2023-03-01T10:33:54.445Z,98805.23
2023-03-01T10:37:23.579Z,98798.27
2023-03-01T10:40:35.144Z,98803.98
2023-03-01T10:43:11.023Z,98801.52
2023-03-01T10:46:10.164Z,98790.85
2023-03-01T10:48:38.828Z,98794.70
2023-03-01T10:52:08.118Z,98785.55
2023-03-01T10:55:28.098Z,98785.02
2023-03-01T10:58:23.318Z,98782.86
2023-03-01T11:01:51.757Z,98775.44
2023-03-01T11:04:44.231Z,98771.70
2023-03-01T11:07:59.490Z,98771.51
2023-03-01T11:11:18.231Z,98766.17
2023-03-01T11:14:49.684Z,98764.77
2023-03-01T11:18:45.945Z,98764.02
2023-03-01T11:21:41.030Z,98759.39
2023-03-01T11:25:10.302Z,98752.33
2023-03-01T11:28:04.184Z,98743.71
2023-03-01T11:31:43.982Z,98739.66
2023-03-01T11:35:14.263Z,98739.17
2023-03-01T11:38:40.674Z,98730.45
2023-03-01T11:42:18.584Z,98723.70
2023-03-01T12:00:55.976Z,98704.13
2023-03-01T12:04:29.871Z,98703.95
2023-03-01T12:07:29.948Z,98707.94
2023-03-01T12:10:56.224Z,98704.48
2023-03-01T12:14:28.642Z,98703.28
2023-03-01T12:17:43.282Z,98700.35
2023-03-01T12:24:57.608Z,98694.39
2023-03-01T13:18:13.946Z,98645.31
2023-03-01T13:21:04.838Z,98637.45
2023-03-01T13:24:33.978Z,98640.77
2023-03-01T13:27:52.908Z,98635.83
2023-03-01T13:30:47.379Z,98633.98
2023-03-01T13:33:51.953Z,98634.77
2023-03-01T13:37:10.098Z,98638.09
2023-03-01T13:40:21.971Z,98638.05
2023-03-01T13:43:48.974Z,98635.68
2023-03-01T13:46:55.217Z,98634.19
2023-03-01T13:50:30.791Z,98626.35
2023-03-01T13:53:03.610Z,98623.16
2023-03-01T13:56:37.591Z,98617.23
2023-03-01T13:59:31.608Z,98619.63
2023-03-01T14:02:39.253Z,98618.27
2023-03-01T14:12:20.468Z,98606.34
2023-03-01T14:39:09.400Z,98608.02
2023-03-01T14:42:31.412Z,98608.77
2023-03-01T14:46:11.140Z,98606.83
2023-03-01T14:49:52.845Z,98606.14
2023-03-01T14:53:09.868Z,98603.88
2023-03-01T14:56:22.392Z,98598.63
2023-03-01T14:59:04.649Z,98597.67
2023-03-01T15:02:28.185Z,98594.84
2023-03-01T15:05:29.940Z,98591.48
2023-03-01T15:08:58.389Z,98593.69
2023-03-01T15:12:15.559Z,98594.86
2023-03-01T15:16:03.485Z,98594.56
2023-03-01T15:19:27.998Z,98597.67
2023-03-01T15:22:43.220Z,98601.65
2023-03-01T15:25:45.995Z,98599.24
2023-03-01T15:28:40.824Z,98598.50
2023-03-01T15:31:54.629Z,98595.87
2023-03-01T15:35:05.339Z,98594.45
2023-03-01T15:42:34.522Z,98598.90
2023-03-01T15:45:51.054Z,98598.20
2023-03-01T15:49:35.472Z,98603.02
2023-03-01T15:53:02.169Z,98607.09
2023-03-01T15:55:34.367Z,98600.29
2023-03-01T15:58:26.390Z,98594.46
2023-03-01T16:01:15.523Z,98590.08
2023-03-01T16:04:06.528Z,98590.08
2023-03-01T16:07:45.800Z,98590.48
2023-03-01T16:11:35.708Z,98594.30
2023-03-01T16:14:47.276Z,98599.80
2023-03-01T16:18:01.615Z,98596.98
2023-03-01T16:21:23.299Z,98598.08
2023-03-01T16:24:49.342Z,98597.14
2023-03-01T16:27:46.582Z,98597.70
2023-03-01T16:31:24.689Z,98600.19
2023-03-01T16:34:00.780Z,98595.48
2023-03-01T16:37:00.916Z,98599.21
2023-03-01T16:40:31.901Z,98601.58
2023-03-01T16:43:55.972Z,98605.73
2023-03-01T16:47:39.186Z,98597.98
2023-03-01T16:51:26.854Z,98593.07
2023-03-01T16:54:58.998Z,98593.19
2023-03-01T16:58:19.141Z,98594.17
2023-03-01T17:23:49.549Z,98615.52
2023-03-01T17:27:12.501Z,98619.64
2023-03-01T17:30:50.721Z,98630.81
2023-03-01T17:33:52.701Z,98636.04
2023-03-01T17:36:52.649Z,98640.48
2023-03-01T17:39:58.247Z,98645.57
2023-03-01T17:43:12.310Z,98645.80
2023-03-01T17:46:51.862Z,98647.33
2023-03-01T17:49:54.516Z,98644.52
2023-03-01T17:52:54.655Z,98641.90
2023-03-01T17:56:35.206Z,98639.52
2023-03-01T17:59:59.361Z,98633.71
2023-03-01T18:03:48.775Z,98629.11
2023-03-01T18:06:57.065Z,98625.70
2023-03-01T18:09:57.904Z,98627.75
2023-03-01T18:12:49.104Z,98622.21
2023-03-01T18:16:10.540Z,98622.17
2023-03-01T18:19:00.325Z,98618.81
2023-03-01T18:22:05.262Z,98617.25
2023-03-01T18:25:20.802Z,98614.05
2023-03-01T18:28:28.631Z,98608.90
2023-03-01T18:31:33.405Z,98603.52
2023-03-01T18:34:32.426Z,98599.12
2023-03-01T18:38:02.040Z,98605.05
2023-03-01T18:40:37.317Z,98601.66
2023-03-01T18:43:50.967Z,98598.16
2023-03-01T18:46:58.391Z,98597.05
2023-03-01T18:50:48.956Z,98597.80
2023-03-01T18:53:41.879Z,98599.46
2023-03-01T18:56:43.377Z,98600.79
2023-03-01T18:59:18.189Z,98599.69
2023-03-01T19:02:50.900Z,98594.02
2023-03-01T19:05:38.742Z,98593.33
2023-03-01T19:08:43.207Z,98593.63
2023-03-01T19:12:09.086Z,98594.41
2023-03-01T19:15:18.982Z,98599.43
2023-03-01T19:19:01.768Z,98602.27
2023-03-01T19:22:34.232Z,98600.92
2023-03-01T19:25:38.141Z,98600.90
2023-03-01T19:29:26.291Z,98607.46
2023-03-01T19:33:01.465Z,98606.08
2023-03-01T19:36:35.034Z,98604.59
2023-03-01T19:40:05.491Z,98603.38
2023-03-01T19:43:13.444Z,98606.09
2023-03-01T19:46:51.217Z,98603.16
2023-03-01T19:50:02.470Z,98613.13
2023-03-01T19:52:55.499Z,98609.41
2023-03-01T19:56:31.678Z,98608.92
2023-03-01T19:59:40.782Z,98605.30
2023-03-01T20:03:18.140Z,98608.09
2023-03-01T20:06:01.935Z,98608.61
2023-03-01T20:08:49.574Z,98604.41
2023-03-01T20:11:56.441Z,98606.48
2023-03-01T20:14:44.942Z,98609.55
2023-03-01T20:17:26.863Z,98601.43
2023-03-01T20:20:16.233Z,98594.70
2023-03-01T20:23:14.585Z,98594.02
2023-03-01T20:25:54.313Z,98591.73
2023-03-01T20:29:03.304Z,98590.56
2023-03-01T20:31:43.415Z,98584.84
2023-03-01T20:34:11.919Z,98582.89
2023-03-01T20:37:11.229Z,98580.02
2023-03-01T20:40:15.424Z,98576.17
2023-03-01T20:44:04.417Z,98575.15
2023-03-01T20:47:25.147Z,98581.30
2023-03-01T20:51:17.054Z,98590.11
2023-03-01T20:54:56.759Z,98595.18
2023-03-01T20:58:04.788Z,98592.08
2023-03-01T21:01:26.453Z,98590.60
2023-03-01T21:04:54.280Z,98596.27
2023-03-01T21:07:48.868Z,98594.95
2023-03-01T21:11:38.508Z,98597.94
2023-03-01T21:15:06.781Z,98599.27
2023-03-01T21:18:48.206Z,98604.02
2023-03-01T21:22:25.884Z,98604.63
2023-03-01T21:26:00.662Z,98607.71
2023-03-01T21:29:38.236Z,98611.55
2023-03-01T21:33:10.463Z,98610.73
2023-03-01T21:36:34.161Z,98609.19
2023-03-01T21:40:20.056Z,98601.21
2023-03-01T21:43:45.049Z,98602.51
2023-03-01T21:47:14.248Z,98600.98
2023-03-01T21:51:03.845Z,98594.94
2023-03-01T21:54:35.155Z,98587.86
2023-03-01T21:58:27.506Z,98588.23
2023-03-01T22:01:43.135Z,98591.40
2023-03-01T22:35:04.637Z,98587.31
2023-03-01T22:38:02.488Z,98590.83
2023-03-01T22:41:52.493Z,98594.66
2023-03-01T22:45:06.740Z,98595.67
2023-03-01T22:48:05.634Z,98597.41
2023-03-01T22:51:38.660Z,98600.25
2023-03-01T22:55:07.518Z,98599.91
2023-03-01T22:58:29.366Z,98598.72
2023-03-01T23:01:50.999Z,98601.88
2023-03-01T23:05:32.594Z,98604.04
2023-03-01T23:08:46.135Z,98599.80
2023-03-01T23:11:58.603Z,98597.39
2023-03-01T23:14:42.189Z,98591.76
2023-03-01T23:17:24.489Z,98593.57
2023-03-01T23:20:14.641Z,98588.96
2023-03-01T23:22:45.374Z,98590.54
2023-03-01T23:25:33.868Z,98588.04
2023-03-01T23:28:03.608Z,98587.20
2023-03-01T23:31:22.630Z,98589.90
2023-03-01T23:34:25.460Z,98587.64
2023-03-01T23:37:36.388Z,98585.52
2023-03-01T23:40:31.109Z,98577.80
2023-03-01T23:43:34.921Z,98574.66
2023-03-01T23:46:45.491Z,98574.83
2023-03-01T23:49:18.462Z,98576.45
2023-03-01T23:52:22.083Z,98578.92
2023-03-01T23:55:53.978Z,98572.86
2023-03-01T23:59:17.648Z,98571.85
